Time;durP1;ratioP1;P1;durP2;ratioP2;P2;SDS_P1;SDS_P2;PMS_P1;PMS_P2;Temp;Humidity;BMP_temperature;BMP_pressure;BME280_temperature;BME280_humidity;BME280_pressure;Samples;Min_cycle;Max_cycle;Signal;HPM_P1;HPM_P2
2023/05/31 00:00:56;;;;;;;3.88;3.20;;;15.50;77.90;;;16.10;42.85;98239.63;5148342;28;20687;-80
2023/05/31 00:03:30;;;;;;;4.10;3.00;;;15.50;77.20;;;16.18;42.84;98238.25;5149220;28;20933;-79
2023/05/31 00:06:03;;;;;;;3.53;2.70;;;15.60;77.40;;;16.09;43.04;98237.88;5140474;28;20232;-79
2023/05/31 00:08:38;;;;;;;3.05;2.83;;;15.50;77.70;;;16.16;42.62;98239.00;5146102;28;20311;-81
2023/05/31 00:11:11;;;;;;;4.80;2.92;;;15.50;76.90;;;15.96;42.77;98230.44;5139778;28;20658;-80
2023/05/31 00:13:44;;;;;;;3.50;2.72;;;15.50;76.60;;;15.93;42.85;98238.06;5143135;28;20228;-78
2023/05/31 00:16:18;;;;;;;4.53;3.00;;;15.50;76.90;;;16.08;42.55;98238.72;5144754;28;20605;-80
2023/05/31 00:19:11;;;;;;;3.08;2.72;;;15.50;76.80;;;16.12;42.41;98238.00;5143319;28;20702;-78
2023/05/31 00:21:45;;;;;;;3.80;2.90;;;15.50;77.00;;;16.03;42.32;98236.75;5148959;28;20227;-80
2023/05/31 00:24:20;;;;;;;3.35;3.00;;;15.40;76.40;;;15.84;42.75;98237.66;5144641;28;20270;-80
2023/05/31 00:26:53;;;;;;;3.72;2.85;;;15.40;76.70;;;15.98;42.53;98244.28;5147051;28;20227;-80
2023/05/31 00:29:27;;;;;;;3.65;2.50;;;15.40;76.40;;;15.96;42.55;98238.19;5148582;28;20234;-81
2023/05/31 00:32:00;;;;;;;3.38;2.47;;;15.40;76.50;;;15.89;42.51;98238.75;5152245;28;20219;-80
2023/05/31 00:34:33;;;;;;;3.13;2.92;;;15.40;76.20;;;15.93;42.15;98246.66;5148390;28;20262;-80
2023/05/31 00:37:06;;;;;;;4.32;2.95;;;15.30;76.20;;;15.83;42.58;98239.38;5140368;28;20227;-80
2023/05/31 00:39:41;;;;;;;3.13;2.70;;;15.30;76.40;;;15.94;42.39;98245.00;5140788;28;20641;-80
2023/05/31 00:42:14;;;;;;;4.78;2.97;;;15.30;76.40;;;15.88;42.64;98250.75;5142111;28;20227;-80
2023/05/31 00:44:47;;;;;;;4.75;3.03;;;15.30;76.40;;;15.83;42.63;98244.53;5142463;28;20228;-80
2023/05/31 00:47:20;;;;;;;5.07;2.75;;;15.20;76.80;;;15.74;42.65;98245.00;5144158;28;20376;-79
2023/05/31 00:49:54;;;;;;;5.68;2.83;;;15.20;77.10;;;15.90;42.58;98241.38;5145229;28;20230;-78
2023/05/31 00:52:29;;;;;;;6.00;3.10;;;15.20;76.80;;;15.76;42.55;98245.94;5147321;28;20690;-79
2023/05/31 00:55:05;;;;;;;3.08;2.65;;;15.20;76.60;;;15.76;43.05;98238.22;5149093;28;20803;-80
2023/05/31 00:57:39;;;;;;;3.42;2.65;;;15.10;77.00;;;15.84;42.47;98242.81;5144005;28;20262;-79
2023/05/31 01:00:14;;;;;;;3.67;2.72;;;15.20;76.80;;;15.87;42.82;98236.09;5143619;28;20584;-80
2023/05/31 01:02:50;;;;;;;4.10;2.80;;;15.20;77.10;;;15.79;42.96;98231.44;5147214;28;20307;-80
2023/05/31 01:05:23;;;;;;;3.85;2.58;;;15.10;76.80;;;15.59;42.72;98235.69;5150250;28;20230;-80
2023/05/31 01:07:58;;;;;;;2.97;2.70;;;15.00;77.90;;;15.47;43.54;98229.19;5151573;28;20278;-81
2023/05/31 01:10:32;;;;;;;5.13;2.88;;;15.00;77.30;;;15.75;42.95;98233.88;5146308;28;20301;-80
2023/05/31 01:13:15;;;;;;;3.50;3.13;;;15.00;77.30;;;15.44;43.30;98233.34;5144586;28;20227;-80
2023/05/31 01:15:58;;;;;;;3.88;2.75;;;14.90;77.60;;;15.42;43.42;98224.66;5138347;28;20841;-81
2023/05/31 01:18:44;;;;;;;3.60;2.70;;;14.80;77.80;;;15.32;43.74;98233.69;5145850;28;20386;-81
2023/05/31 01:21:19;;;;;;;4.10;2.92;;;14.80;78.10;;;15.41;44.13;98233.19;5149804;28;20615;-80
2023/05/31 01:24:11;;;;;;;3.50;3.00;;;14.80;78.10;;;15.31;44.00;98227.66;5146865;28;20226;-80
2023/05/31 01:26:50;;;;;;;5.07;2.67;;;14.70;78.40;;;15.57;43.89;98230.50;5149664;28;20230;-79
2023/05/31 01:29:25;;;;;;;4.57;2.80;;;14.90;78.30;;;15.46;43.83;98222.28;5145761;28;20215;-80
2023/05/31 01:32:00;;;;;;;5.07;3.03;;;14.80;78.50;;;15.27;44.58;98227.44;5143376;28;20233;-81
2023/05/31 01:34:33;;;;;;;3.65;2.92;;;14.70;78.70;;;15.33;44.20;98222.56;5150185;28;20230;-79
2023/05/31 01:37:07;;;;;;;5.32;3.08;;;14.60;78.80;;;15.23;44.31;98222.97;5140197;28;20220;-80
2023/05/31 01:39:40;;;;;;;4.28;2.75;;;14.60;79.20;;;15.35;43.87;98228.66;5140430;28;20244;-80
2023/05/31 01:42:14;;;;;;;4.78;2.88;;;14.60;79.10;;;15.33;44.44;98222.56;5141046;28;20232;-80
2023/05/31 01:44:49;;;;;;;3.78;2.67;;;14.60;79.40;;;15.21;44.13;98224.59;5145361;28;20278;-81
2023/05/31 01:47:23;;;;;;;3.33;2.95;;;14.50;79.50;;;15.28;44.38;98221.47;5148328;28;20314;-79
2023/05/31 01:49:58;;;;;;;4.43;3.00;;;14.50;79.70;;;15.10;45.06;98231.81;5144937;28;20228;-79
2023/05/31 01:52:32;;;;;;;3.50;2.42;;;14.40;79.60;;;15.19;44.79;98231.34;5145773;28;20667;-81
2023/05/31 01:55:06;;;;;;;3.45;3.00;;;14.40;80.30;;;15.29;44.49;98239.56;5147881;28;20224;-80
2023/05/31 01:57:44;;;;;;;3.10;2.85;;;14.50;79.90;;;15.02;45.24;98236.66;5144796;28;20234;-79
2023/05/31 02:00:17;;;;;;;3.00;2.80;;;14.40;79.70;;;15.15;44.91;98235.50;5148896;28;20234;-81
2023/05/31 02:02:52;;;;;;;3.78;3.15;;;14.40;80.00;;;15.24;44.75;98235.91;5148851;28;20227;-81
2023/05/31 02:05:25;;;;;;;4.10;2.60;;;14.40;79.90;;;15.10;44.90;98231.81;5143195;28;20254;-80
2023/05/31 02:07:58;;;;;;;3.63;2.58;;;14.40;80.00;;;15.10;44.96;98242.13;5146536;28;20227;-81
2023/05/31 02:10:31;;;;;;;3.85;3.10;;;14.40;80.50;;;15.10;45.32;98242.13;5149644;28;20231;-82
2023/05/31 02:13:06;;;;;;;3.10;2.80;;;14.30;80.90;;;15.08;45.68;98233.47;5155210;28;20227;-81
2023/05/31 02:15:41;;;;;;;3.05;2.70;;;14.30;81.00;;;15.20;45.20;98243.44;5148238;28;20304;-80
2023/05/31 02:18:16;;;;;;;4.20;2.92;;;14.40;80.80;;;15.06;45.56;98241.13;5148655;28;20310;-81
2023/05/31 02:20:49;;;;;;;3.45;2.90;;;14.30;81.40;;;15.18;45.33;98233.06;5148030;28;20275;-80
2023/05/31 02:23:23;;;;;;;8.27;3.13;;;14.30;81.80;;;14.99;46.52;98240.75;5148562;28;20222;-81
2023/05/31 02:25:56;;;;;;;3.53;2.70;;;14.20;82.20;;;14.89;46.11;98238.59;5154358;28;20223;-81
2023/05/31 02:28:31;;;;;;;3.95;2.88;;;14.10;82.70;;;15.02;45.87;98251.19;5160180;28;20254;-81
2023/05/31 02:31:05;;;;;;;4.05;2.92;;;14.10;82.80;;;15.00;46.42;98234.81;5150196;28;20215;-81
2023/05/31 02:33:41;;;;;;;4.45;2.88;;;14.10;83.10;;;14.95;46.59;98237.16;5150433;28;20247;-80
2023/05/31 02:36:14;;;;;;;4.32;2.83;;;14.00;82.50;;;14.87;46.69;98244.53;5153118;28;20711;-80
2023/05/31 02:38:47;;;;;;;4.05;3.00;;;14.00;83.30;;;14.93;46.98;98238.78;5153180;28;20243;-80
2023/05/31 02:41:21;;;;;;;4.15;2.90;;;14.00;83.70;;;14.75;47.24;98233.66;5151272;28;20223;-81
2023/05/31 02:43:55;;;;;;;3.20;2.72;;;13.80;84.50;;;14.76;47.33;98230.28;5155397;28;20700;-80
2023/05/31 02:46:28;;;;;;;3.45;2.90;;;13.80;84.40;;;14.83;46.93;98232.34;5153645;28;20258;-80
2023/05/31 02:49:02;;;;;;;3.42;3.10;;;13.90;84.10;;;14.47;48.12;98230.56;5147939;28;20290;-81
2023/05/31 02:51:35;;;;;;;4.13;3.00;;;13.70;84.00;;;14.67;47.18;98229.84;5154853;28;20227;-81
2023/05/31 02:54:09;;;;;;;4.20;2.95;;;13.70;84.50;;;14.76;47.31;98232.84;5150641;28;20230;-80
2023/05/31 02:56:42;;;;;;;3.53;3.22;;;13.80;84.60;;;14.71;47.83;98226.63;5151073;28;20224;-80
2023/05/31 02:59:16;;;;;;;5.30;3.00;;;13.80;85.30;;;14.63;47.91;98225.38;5152741;28;20222;-81
2023/05/31 03:01:50;;;;;;;3.08;2.80;;;13.70;85.40;;;14.67;48.69;98226.41;5154869;28;20218;-81
2023/05/31 03:04:23;;;;;;;3.45;3.00;;;13.70;85.70;;;14.39;49.22;98233.69;5149392;28;20247;-81
2023/05/31 03:06:57;;;;;;;4.10;3.17;;;13.50;86.00;;;14.29;49.18;98231.47;5147073;28;20250;-81
2023/05/31 03:09:30;;;;;;;4.75;3.08;;;13.40;86.90;;;14.22;49.32;98236.22;5160581;28;20242;-80
2023/05/31 03:12:05;;;;;;;3.03;2.78;;;13.40;87.90;;;14.15;50.56;98235.03;5149271;28;20237;-81
2023/05/31 03:14:40;;;;;;;4.10;3.15;;;13.30;87.60;;;14.00;50.21;98236.88;5162211;28;20226;-80
2023/05/31 03:17:13;;;;;;;4.47;3.00;;;13.10;88.00;;;13.96;49.72;98235.81;5146833;28;20247;-79
2023/05/31 03:19:46;;;;;;;4.85;3.33;;;13.10;88.00;;;13.99;50.45;98230.81;5145660;28;20712;-79
2023/05/31 03:22:20;;;;;;;3.65;3.30;;;13.10;88.50;;;13.96;50.73;98230.66;5145046;28;20282;-80
2023/05/31 03:24:53;;;;;;;4.50;2.90;;;13.00;88.50;;;13.87;50.68;98235.34;5154342;28;20231;-79
2023/05/31 03:27:27;;;;;;;3.58;3.28;;;13.00;89.30;;;13.90;51.33;98236.38;5151051;28;20235;-78
2023/05/31 03:30:02;;;;;;;3.55;2.90;;;13.00;90.10;;;13.81;52.18;98241.06;5151456;28;21177;-80
2023/05/31 03:32:35;;;;;;;3.38;3.08;;;12.90;89.70;;;13.85;50.84;98243.00;5145959;28;20227;-80
2023/05/31 03:35:10;;;;;;;5.13;3.25;;;12.90;89.80;;;13.89;51.11;98239.78;5152315;28;20219;-80
2023/05/31 03:37:43;;;;;;;4.07;3.25;;;13.00;89.50;;;13.90;50.94;98233.81;5148730;28;20247;-79
2023/05/31 03:40:17;;;;;;;5.80;3.50;;;13.00;89.60;;;13.74;50.78;98239.00;5150844;28;20283;-80
2023/05/31 03:42:50;;;;;;;4.30;3.33;;;12.90;88.90;;;13.83;51.24;98241.16;5152678;28;20223;-80
2023/05/31 03:45:25;;;;;;;4.18;3.28;;;13.00;88.70;;;13.83;51.55;98244.59;5148311;28;20224;-80
2023/05/31 03:47:58;;;;;;;3.55;3.25;;;13.00;89.10;;;13.95;50.87;98240.06;5142836;28;20290;-81
2023/05/31 03:50:31;;;;;;;5.80;3.60;;;13.10;89.00;;;13.82;51.17;98247.09;5144840;28;20227;-80
2023/05/31 03:53:04;;;;;;;4.22;2.97;;;13.00;89.20;;;13.70;51.87;98243.09;5143876;28;20231;-80
2023/05/31 03:55:37;;;;;;;3.80;3.28;;;12.90;89.70;;;13.73;51.68;98243.28;5139045;28;20231;-80
2023/05/31 03:58:11;;;;;;;4.03;3.55;;;12.90;89.20;;;13.81;51.10;98246.22;5145598;28;20220;-79
2023/05/31 04:00:46;;;;;;;5.93;3.03;;;12.90;89.40;;;13.93;50.60;98241.69;5149176;28;20696;-79
2023/05/31 04:03:19;;;;;;;4.85;3.20;;;13.00;88.60;;;14.10;49.74;98249.34;5146352;28;20231;-80
2023/05/31 04:05:53;;;;;;;5.10;3.58;;;13.10;88.40;;;13.92;50.85;98245.06;5147012;28;20255;-81
2023/05/31 04:08:26;;;;;;;3.53;3.08;;;13.10;88.90;;;13.96;50.17;98241.88;5153834;28;20236;-80
2023/05/31 04:10:59;;;;;;;4.07;3.00;;;13.20;88.40;;;14.06;50.53;98242.31;5142706;28;20282;-80
2023/05/31 04:13:32;;;;;;;3.63;3.28;;;13.10;88.60;;;14.01;51.30;98249.78;5149485;28;20227;-80
2023/05/31 04:16:07;;;;;;;3.65;3.28;;;13.20;89.50;;;14.13;51.79;98249.50;5153044;28;20375;-79
2023/05/31 04:18:40;;;;;;;3.33;3.03;;;13.30;89.40;;;14.15;49.62;98253.91;5135356;28;20219;-79
2023/05/31 04:21:13;;;;;;;4.35;3.00;;;13.30;87.60;;;14.19;49.97;98250.72;5147626;28;20224;-80
2023/05/31 04:23:46;;;;;;;4.38;3.28;;;13.30;88.30;;;14.26;50.60;98251.00;5137223;28;20234;-77
2023/05/31 04:26:20;;;;;;;4.93;3.17;;;13.40;88.80;;;14.23;50.01;98261.13;5135587;28;20224;-78
2023/05/31 04:28:54;;;;;;;3.95;3.60;;;13.40;87.40;;;14.42;50.48;98251.81;5135867;28;20219;-79
2023/05/31 04:31:29;;;;;;;8.70;5.95;;;13.50;88.30;;;14.41;50.25;98247.47;5135260;28;20219;-77
2023/05/31 04:34:22;;;;;;;4.68;3.20;;;13.50;88.10;;;14.51;49.68;98258.22;5136993;28;22523;-79
2023/05/31 04:36:56;;;;;;;3.65;3.13;;;13.70;86.40;;;14.66;49.88;98261.56;5144442;28;20224;-80
2023/05/31 04:39:31;;;;;;;3.88;3.22;;;13.80;86.80;;;14.63;50.08;98269.13;5151085;28;20219;-80
2023/05/31 04:42:05;;;;;;;3.50;2.95;;;13.80;87.50;;;14.79;48.18;98261.31;5143716;28;20231;-80
2023/05/31 04:44:38;;;;;;;4.78;3.10;;;14.00;86.50;;;14.97;48.09;98265.56;5147528;28;20223;-79
2023/05/31 04:47:15;;;;;;;4.15;2.85;;;14.20;85.90;;;14.91;48.88;98260.09;5136943;28;20215;-79
2023/05/31 04:49:48;;;;;;;3.65;3.35;;;14.20;85.90;;;15.23;47.04;98267.63;5137080;28;20271;-79
2023/05/31 04:52:29;;;;;;;4.45;3.20;;;14.40;84.20;;;15.50;46.78;98267.09;5136754;28;20227;-80
2023/05/31 04:55:02;;;;;;;3.67;3.33;;;14.70;83.30;;;15.78;46.50;98271.78;5140625;28;20223;-78
2023/05/31 04:57:36;;;;;;;3.63;2.90;;;15.00;84.30;;;16.40;44.99;98260.66;5140689;28;20652;-78
2023/05/31 05:00:14;;;;;;;4.18;3.15;;;15.60;82.00;;;17.00;44.08;98254.44;5138957;28;20223;-79
2023/05/31 05:02:48;;;;;;;2.72;2.53;;;16.20;80.20;;;17.39;42.36;98255.00;5147020;28;20696;-80
2023/05/31 05:05:23;;;;;;;4.28;3.28;;;16.60;78.80;;;18.02;41.14;98255.53;5139644;28;20819;-78
2023/05/31 05:07:56;;;;;;;3.92;3.20;;;17.30;76.60;;;18.41;40.56;98255.13;5141061;28;20224;-79
2023/05/31 05:10:29;;;;;;;3.67;3.03;;;17.60;75.90;;;18.77;40.52;98264.94;5142046;28;20236;-79
2023/05/31 05:13:03;;;;;;;5.13;3.00;;;17.70;76.30;;;19.25;39.01;98264.66;5145597;28;20262;-81
2023/05/31 05:15:36;;;;;;;3.13;2.75;;;18.10;75.10;;;19.29;38.51;98265.63;5148557;28;20230;-78
2023/05/31 05:18:10;;;;;;;4.85;2.97;;;18.20;73.90;;;19.57;38.53;98268.19;5141539;28;20224;-80
2023/05/31 05:20:44;;;;;;;5.05;3.00;;;18.20;75.00;;;19.94;37.27;98271.78;5142431;28;20294;-80
2023/05/31 05:23:17;;;;;;;4.00;3.05;;;18.70;73.00;;;19.94;37.42;98273.50;5147962;28;20867;-80
2023/05/31 05:25:50;;;;;;;3.00;2.80;;;18.50;73.50;;;20.42;37.00;98260.91;5150242;28;20774;-78
2023/05/31 05:28:23;;;;;;;4.40;3.10;;;18.70;73.90;;;20.52;37.00;98264.63;5136685;28;20235;-79
2023/05/31 05:30:56;;;;;;;4.80;3.08;;;18.70;73.90;;;20.65;36.46;98255.44;5148094;28;20220;-81
2023/05/31 05:33:31;;;;;;;6.05;3.55;;;18.90;72.90;;;21.05;35.78;98266.72;5141489;28;20228;-80
2023/05/31 05:36:05;;;;;;;3.80;2.83;;;19.10;73.00;;;20.44;35.79;98264.44;5150937;28;20226;-81
2023/05/31 05:38:39;;;;;;;5.22;3.13;;;19.00;71.40;;;20.90;35.71;98268.16;5146449;28;20223;-80
2023/05/31 05:41:12;;;;;;;4.25;3.03;;;19.30;71.70;;;21.44;34.98;98269.34;5146946;28;20224;-81
2023/05/31 05:43:45;;;;;;;4.55;3.00;;;19.70;70.80;;;21.55;34.18;98267.84;5140457;28;20294;-80
2023/05/31 05:46:18;;;;;;;5.05;2.70;;;20.00;69.80;;;21.84;34.05;98275.34;5148679;28;20223;-81
2023/05/31 05:48:53;;;;;;;4.47;3.15;;;20.30;69.20;;;21.44;34.43;98279.75;5146857;28;20230;-81
2023/05/31 05:51:26;;;;;;;7.15;4.47;;;20.30;68.60;;;21.83;34.61;98276.16;5153631;28;20223;-79
2023/05/31 05:54:00;;;;;;;3.55;2.85;;;20.30;70.00;;;22.05;34.07;98267.91;5157783;28;20265;-81
2023/05/31 05:56:33;;;;;;;4.32;3.03;;;20.60;68.50;;;22.53;32.59;98265.31;5145571;28;20231;-82
2023/05/31 05:59:06;;;;;;;3.70;2.55;;;20.90;67.20;;;22.90;33.45;98272.84;5148423;28;20285;-81
2023/05/31 06:01:40;;;;;;;3.17;2.67;;;21.20;69.10;;;23.11;32.12;98268.81;5146681;28;20450;-81
2023/05/31 06:04:15;;;;;;;4.47;2.75;;;21.30;66.90;;;23.12;32.22;98275.75;5149939;28;20291;-83
2023/05/31 06:06:48;;;;;;;3.90;2.63;;;21.50;66.40;;;23.34;31.84;98275.19;5147659;28;20215;-81
2023/05/31 06:09:21;;;;;;;4.00;2.58;;;21.50;66.90;;;23.49;31.79;98269.28;5151730;28;20220;-82
2023/05/31 06:11:54;;;;;;;3.50;2.67;;;21.80;66.50;;;23.31;32.56;98269.06;5156134;28;20226;-81
2023/05/31 06:14:28;;;;;;;3.88;2.47;;;21.50;68.00;;;23.68;31.69;98267.78;5149575;28;20606;-82
2023/05/31 06:17:01;;;;;;;3.10;2.58;;;21.90;66.90;;;23.46;31.29;98278.81;5146538;28;20232;-82
2023/05/31 06:19:35;;;;;;;3.08;2.78;;;21.90;65.10;;;24.11;30.61;98270.03;5150893;28;20219;-82
2023/05/31 06:22:09;;;;;;;4.78;2.78;;;22.20;65.20;;;23.93;31.29;98270.72;5147769;28;20227;-82
2023/05/31 06:24:43;;;;;;;3.00;2.50;;;22.20;65.50;;;24.20;30.83;98270.97;5151389;28;20227;-83
2023/05/31 06:27:16;;;;;;;4.60;2.70;;;22.30;65.30;;;23.87;30.79;98268.91;5151857;28;20220;-82
2023/05/31 06:29:54;;;;;;;3.80;2.50;;;22.30;64.40;;;24.41;31.00;98269.41;5146385;28;20220;-83
2023/05/31 06:32:28;;;;;;;3.40;2.50;;;22.60;64.70;;;24.36;30.69;98266.78;5150531;28;20228;-77
2023/05/31 06:35:03;;;;;;;4.30;2.78;;;22.60;64.80;;;24.08;30.52;98276.09;5141775;28;20232;-77
2023/05/31 06:37:38;;;;;;;5.20;2.63;;;22.50;63.80;;;24.45;30.36;98269.50;5156742;28;20219;-78
2023/05/31 06:40:12;;;;;;;3.05;2.75;;;22.60;64.20;;;24.19;30.57;98264.00;5146545;28;20597;-78
2023/05/31 06:42:45;;;;;;;3.33;2.65;;;22.60;63.90;;;25.09;30.03;98261.22;5148346;28;20223;-79
2023/05/31 06:45:19;;;;;;;4.43;2.78;;;23.10;63.90;;;25.39;29.51;98265.78;5140149;28;20672;-79
2023/05/31 06:47:52;;;;;;;3.08;2.53;;;23.60;62.60;;;25.11;29.76;98256.88;5152640;28;20699;-78
2023/05/31 06:50:27;;;;;;;4.40;2.70;;;23.50;62.50;;;25.41;29.44;98263.19;5147295;28;20688;-79
2023/05/31 06:53:00;;;;;;;3.55;2.83;;;23.80;61.90;;;25.50;29.31;98258.00;5142731;28;20599;-79
2023/05/31 06:55:33;;;;;;;6.10;3.00;;;23.80;61.70;;;25.56;29.22;98262.38;5149764;28;20223;-78
2023/05/31 06:58:06;;;;;;;3.63;2.70;;;23.70;62.40;;;25.83;28.32;98257.25;5150107;28;20654;-78
2023/05/31 07:00:40;;;;;;;4.45;2.58;;;24.20;61.10;;;26.25;29.25;98250.34;5149890;28;20220;-78
2023/05/31 07:03:13;;;;;;;5.22;2.72;;;24.40;62.60;;;26.64;28.13;98259.13;5151973;28;20273;-79
2023/05/31 07:05:48;;;;;;;3.13;2.53;;;25.10;60.70;;;26.90;27.79;98252.97;5150361;28;20219;-77
2023/05/31 07:08:21;;;;;;;4.55;2.78;;;25.20;60.50;;;26.16;28.74;98255.56;5149936;28;20221;-79
2023/05/31 07:10:55;;;;;;;4.47;2.80;;;24.80;61.10;;;26.77;27.92;98249.47;5144255;28;20227;-79
2023/05/31 07:13:28;;;;;;;3.45;2.80;;;25.00;60.80;;;26.99;27.24;98255.56;5150664;28;20239;-80
2023/05/31 07:16:01;;;;;;;4.40;2.55;;;25.20;59.60;;;27.33;27.49;98248.50;5142334;28;20231;-79
2023/05/31 07:18:35;;;;;;;3.45;2.40;;;25.50;59.90;;;26.68;27.97;98254.75;5148127;28;20228;-79
2023/05/31 07:21:09;;;;;;;4.72;2.50;;;25.30;59.60;;;27.27;27.81;98248.53;5153148;28;20219;-79
2023/05/31 07:23:42;;;;;;;3.85;2.60;;;25.60;60.10;;;27.74;27.43;98246.56;5150666;28;20226;-79
2023/05/31 07:26:16;;;;;;;4.15;2.75;;;25.60;60.60;;;27.86;27.37;98246.53;5153650;28;20215;-78
2023/05/31 07:28:52;;;;;;;3.97;2.60;;;26.00;60.70;;;27.37;27.60;98247.59;5144791;28;20235;-78
2023/05/31 07:31:26;;;;;;;4.32;2.65;;;26.00;59.30;;;27.63;27.04;98239.59;5142908;28;20237;-78
2023/05/31 07:33:59;;;;;;;4.32;2.72;;;25.80;59.30;;;27.71;27.18;98242.22;5155530;28;20219;-79
2023/05/31 07:36:34;;;;;;;3.83;2.40;;;25.90;59.70;;;27.53;27.17;98231.81;5152031;28;20227;-79
2023/05/31 07:39:08;;;;;;;4.28;2.72;;;25.80;59.20;;;27.80;27.41;98226.41;5151347;28;20235;-81
2023/05/31 07:41:42;;;;;;;5.05;2.78;;;25.80;60.00;;;27.79;26.15;98224.69;5145721;28;20222;-79
2023/05/31 07:44:18;;;;;;;3.13;2.55;;;25.80;58.50;;;27.63;26.54;98226.47;5145767;28;20218;-81
2023/05/31 07:46:51;;;;;;;2.97;2.45;;;25.80;58.80;;;27.84;26.55;98217.66;5151700;28;20226;-81
2023/05/31 07:49:24;;;;;;;4.60;2.97;;;25.90;59.20;;;27.42;27.22;98223.09;5157323;28;20297;-79
2023/05/31 07:52:01;;;;;;;7.60;3.17;;;25.70;59.60;;;27.17;26.31;98234.56;5151093;28;20241;-82
2023/05/31 07:54:34;;;;;;;3.83;2.80;;;25.70;58.00;;;28.10;25.90;98218.34;5146443;28;20234;-79
2023/05/31 07:57:08;;;;;;;3.92;2.75;;;26.00;58.60;;;27.90;26.65;98215.84;5144796;28;20227;-79
2023/05/31 07:59:41;;;;;;;3.80;2.72;;;25.70;59.20;;;28.07;26.30;98206.97;5155430;28;20254;-79
2023/05/31 08:02:15;;;;;;;4.90;3.03;;;26.00;58.80;;;28.25;25.17;98205.09;5150926;28;20230;-81
2023/05/31 08:04:49;;;;;;;4.10;2.53;;;26.20;56.90;;;28.54;24.86;98210.13;5150827;28;20222;-81
2023/05/31 08:07:24;;;;;;;5.00;3.15;;;26.80;56.50;;;28.01;25.37;98199.13;5152950;28;20207;-80
2023/05/31 08:09:58;;;;;;;7.10;2.85;;;25.90;57.80;;;27.45;25.27;98234.47;5156811;28;20454;-81
2023/05/31 08:12:31;;;;;;;5.82;2.95;;;25.80;56.60;;;26.61;26.42;98221.50;5143602;28;20230;-81
2023/05/31 08:15:06;;;;;;;5.03;2.90;;;25.10;57.10;;;25.83;27.19;98227.56;5158317;28;20214;-78
2023/05/31 08:17:41;;;;;;;4.13;2.92;;;24.80;57.50;;;25.31;28.35;98203.81;5149521;28;20223;-80
2023/05/31 08:20:16;;;;;;;3.60;2.72;;;24.30;59.30;;;25.65;28.20;98206.53;5151005;28;20218;-81
2023/05/31 08:22:52;;;;;;;4.20;2.60;;;24.60;58.60;;;25.84;28.38;98217.09;5147026;28;20222;-79
2023/05/31 08:25:26;;;;;;;5.50;2.80;;;24.80;59.00;;;25.50;27.84;98237.06;5153644;28;21028;-79
2023/05/31 08:27:59;;;;;;;5.25;3.00;;;24.70;57.90;;;24.70;29.42;98204.34;5144799;28;20249;-78
2023/05/31 08:30:32;;;;;;;3.75;2.90;;;24.00;59.40;;;24.88;29.73;98212.28;5156784;28;20285;-79
2023/05/31 08:33:07;;;;;;;4.30;2.70;;;24.00;60.40;;;25.16;29.41;98210.72;5145525;28;20264;-78
2023/05/31 08:35:40;;;;;;;5.72;2.90;;;24.50;59.00;;;24.64;29.86;98197.34;5152983;28;20247;-78
2023/05/31 08:38:15;;;;;;;3.58;2.67;;;24.10;59.30;;;24.37;29.96;98210.16;5151098;28;20235;-79
2023/05/31 08:40:49;;;;;;;3.92;3.25;;;23.80;59.60;;;24.43;30.18;98205.00;5153496;28;20225;-79
2023/05/31 08:43:25;;;;;;;5.38;3.10;;;23.90;59.60;;;24.35;30.61;98201.44;5145612;28;20228;-78
2023/05/31 08:45:58;;;;;;;4.13;3.03;;;23.70;60.60;;;24.48;29.61;98193.72;5156617;28;20214;-79
2023/05/31 08:48:40;;;;;;;6.43;2.95;;;24.10;59.40;;;23.89;31.01;98186.22;5152648;28;20220;-79
2023/05/31 08:51:15;;;;;;;3.25;2.50;;;23.50;61.60;;;24.24;30.88;98186.56;5149907;28;20269;-80
2023/05/31 08:53:51;;;;;;;5.35;3.03;;;23.70;60.90;;;24.52;30.62;98192.00;5151732;28;20687;-79
2023/05/31 08:56:26;;;;;;;4.32;2.70;;;24.10;60.00;;;24.30;30.39;98184.88;5155753;28;20305;-79
2023/05/31 08:59:00;;;;;;;4.63;2.92;;;23.90;60.10;;;24.56;30.72;98191.19;5149150;28;20311;-79
2023/05/31 09:01:35;;;;;;;7.00;2.92;;;24.10;60.20;;;24.49;30.45;98186.75;5158040;28;20211;-79
2023/05/31 09:04:08;;;;;;;4.05;2.85;;;24.10;59.70;;;25.05;29.69;98190.59;5150316;28;20227;-80
2023/05/31 09:06:41;;;;;;;5.43;2.78;;;24.70;59.40;;;24.97;29.78;98182.69;5156057;28;20216;-79
2023/05/31 09:09:16;;;;;;;5.57;3.35;;;24.60;58.60;;;25.20;30.45;98197.66;5148520;28;20224;-80
2023/05/31 09:11:49;;;;;;;3.90;2.60;;;24.90;59.90;;;25.05;29.13;98201.91;5149371;28;20214;-79
2023/05/31 09:14:24;;;;;;;3.55;2.85;;;24.60;58.50;;;24.70;29.24;98192.13;5149683;28;20239;-79
2023/05/31 09:16:57;;;;;;;5.13;2.90;;;24.50;57.90;;;24.28;30.32;98196.16;5154380;28;20218;-78
2023/05/31 09:19:31;;;;;;;4.43;2.95;;;23.80;59.50;;;24.36;30.34;98187.50;5151559;28;20250;-79
2023/05/31 09:22:05;;;;;;;4.32;2.95;;;24.10;59.40;;;24.36;30.25;98187.50;5157457;28;20230;-79
2023/05/31 09:24:50;;;;;;;6.13;3.22;;;24.00;59.50;;;24.67;30.09;98180.78;5145350;28;20457;-79
2023/05/31 09:27:24;;;;;;;4.65;2.80;;;24.40;59.40;;;24.63;30.98;98177.25;5155593;28;20219;-79
2023/05/31 09:29:57;;;;;;;5.18;2.90;;;24.30;59.90;;;24.93;29.58;98184.44;5155537;28;20223;-79
2023/05/31 09:32:30;;;;;;;4.60;3.03;;;24.60;59.00;;;24.70;29.81;98183.44;5146924;28;20807;-80
2023/05/31 09:35:14;;;;;;;3.60;2.65;;;24.20;58.90;;;24.72;29.98;98182.56;5153346;28;20231;-79
2023/05/31 09:37:50;;;;;;;3.55;2.80;;;24.30;59.40;;;25.07;28.67;98171.41;5153910;28;20224;-79
2023/05/31 09:40:26;;;;;;;3.40;2.63;;;24.50;58.20;;;24.49;29.12;98174.59;5152054;28;20235;-79
2023/05/31 09:43:00;;;;;;;5.53;2.90;;;24.20;58.40;;;24.68;29.40;98172.94;5159742;28;20227;-79
2023/05/31 09:45:33;;;;;;;4.10;2.80;;;24.20;59.40;;;24.49;29.78;98181.53;5149890;28;20229;-79
2023/05/31 09:48:12;;;;;;;3.72;3.00;;;24.20;58.80;;;24.45;29.79;98170.19;5157962;28;20219;-80
2023/05/31 09:50:46;;;;;;;3.90;2.90;;;24.20;58.90;;;24.21;30.02;98186.53;5147053;28;20231;-79
2023/05/31 09:53:19;;;;;;;4.07;2.90;;;24.00;59.10;;;24.62;30.33;98191.22;5162783;28;20230;-79
2023/05/31 09:55:55;;;;;;;4.88;2.65;;;24.20;59.80;;;24.55;30.16;98178.09;5157495;28;20273;-79
2023/05/31 09:58:31;;;;;;;5.00;3.10;;;24.10;59.40;;;24.52;29.84;98183.28;5155561;28;20706;-79
2023/05/31 10:01:05;;;;;;;4.35;3.20;;;24.10;59.00;;;24.45;29.88;98169.31;5155502;28;20251;-79
2023/05/31 10:03:40;;;;;;;5.93;2.60;;;24.00;58.90;;;24.48;30.12;98182.41;5150149;28;20214;-78
2023/05/31 10:06:16;;;;;;;4.40;2.80;;;24.10;58.80;;;24.35;30.34;98170.06;5147206;28;20226;-79
2023/05/31 10:08:51;;;;;;;4.57;3.05;;;23.90;59.50;;;24.53;29.55;98175.47;5148557;28;20226;-80
2023/05/31 10:11:31;;;;;;;4.40;2.83;;;24.10;58.60;;;24.66;29.77;98171.19;5148058;28;20270;-79
2023/05/31 10:14:09;;;;;;;6.50;2.88;;;24.10;59.20;;;24.68;30.54;98172.94;5152911;28;20745;-80
2023/05/31 10:16:47;;;;;;;4.25;2.92;;;24.10;59.60;;;24.40;29.65;98174.47;5152179;28;20238;-79
2023/05/31 10:19:24;;;;;;;4.07;2.80;;;24.10;58.40;;;24.36;30.14;98171.84;5153303;28;20230;-79
2023/05/31 10:22:02;;;;;;;5.57;3.10;;;24.10;58.90;;;24.17;30.11;98182.13;5151977;28;20227;-79
2023/05/31 10:24:44;;;;;;;4.63;3.03;;;23.90;58.80;;;23.92;30.51;98173.22;5154807;28;20231;-80
2023/05/31 10:27:31;;;;;;;6.10;2.95;;;23.60;59.30;;;23.64;29.46;98165.97;5150526;28;20222;-79
2023/05/31 10:30:06;;;;;;;4.57;2.72;;;23.50;58.40;;;23.52;30.49;98175.41;5154512;28;20598;-78
2023/05/31 10:32:44;;;;;;;4.85;2.92;;;23.20;59.40;;;23.99;30.24;98167.19;5151859;28;20253;-79
2023/05/31 10:35:18;;;;;;;3.22;2.80;;;23.60;59.30;;;24.32;30.41;98167.44;5161306;28;20219;-79
2023/05/31 10:37:53;;;;;;;4.07;2.80;;;23.90;59.70;;;24.44;30.36;98167.59;5149717;28;20230;-79
2023/05/31 10:40:36;;;;;;;3.38;3.08;;;24.00;59.20;;;24.44;30.33;98155.38;5151520;28;20235;-79
2023/05/31 10:43:30;;;;;;;6.05;3.50;;;24.10;59.20;;;24.54;30.26;98155.44;5150681;28;20239;-79
2023/05/31 10:46:10;;;;;;;4.22;2.80;;;24.10;59.80;;;24.27;29.66;98163.06;5147303;28;20227;-80
2023/05/31 10:48:52;;;;;;;5.07;2.63;;;23.90;58.40;;;24.28;30.72;98159.56;5157381;28;20746;-80
2023/05/31 10:51:39;;;;;;;4.70;2.70;;;23.90;60.00;;;24.12;30.02;98130.72;5154939;28;20224;-79